createdAt,value
2017-06-27T00:00:57.084Z,65
2017-06-27T00:01:57.806Z,66
2017-06-27T00:02:58.528Z,66
2017-06-27T00:03:59.251Z,66
2017-06-27T00:05:00.002Z,66
2017-06-27T00:06:00.971Z,66
2017-06-27T00:07:01.691Z,66
2017-06-27T00:08:02.416Z,66
2017-06-27T00:09:03.140Z,66
2017-06-27T00:10:03.864Z,65
2017-06-27T00:11:04.837Z,66
2017-06-27T00:12:05.556Z,66
2017-06-27T00:13:06.279Z,66
2017-06-27T00:14:07.003Z,66
2017-06-27T00:15:07.726Z,66
2017-06-27T00:16:08.701Z,67
2017-06-27T00:17:09.451Z,66
2017-06-27T00:18:10.196Z,66
2017-06-27T00:19:10.923Z,67
2017-06-27T00:20:11.643Z,66
2017-06-27T00:21:12.616Z,67
2017-06-27T00:22:13.341Z,67
2017-06-27T00:23:14.062Z,67
2017-06-27T00:24:14.787Z,67
2017-06-27T00:25:15.507Z,67
2017-06-27T00:26:16.478Z,67
2017-06-27T00:27:17.202Z,67
2017-06-27T00:28:17.949Z,67
2017-06-27T00:29:18.674Z,67
2017-06-27T00:30:19.395Z,68
2017-06-27T00:31:20.370Z,67
2017-06-27T00:32:21.115Z,68
2017-06-27T00:33:21.838Z,68
2017-06-27T00:34:22.565Z,68
2017-06-27T00:35:23.285Z,68
2017-06-27T00:36:24.257Z,68
2017-06-27T00:37:24.978Z,68
2017-06-27T00:38:25.701Z,68
2017-06-27T00:39:26.426Z,68
2017-06-27T00:40:27.152Z,68
2017-06-27T00:41:28.120Z,68
2017-06-27T00:42:28.842Z,68
2017-06-27T00:43:29.563Z,68
2017-06-27T00:44:30.284Z,68
2017-06-27T00:45:31.011Z,68
2017-06-27T00:46:31.987Z,68
2017-06-27T00:47:32.709Z,68
2017-06-27T00:48:33.432Z,68
2017-06-27T00:49:34.151Z,68
2017-06-27T00:50:34.870Z,68
2017-06-27T00:51:35.847Z,68
2017-06-27T00:52:36.563Z,69
2017-06-27T00:53:37.287Z,69
2017-06-27T00:54:38.010Z,69
2017-06-27T00:55:38.735Z,69
2017-06-27T00:56:39.710Z,69
2017-06-27T00:57:40.431Z,69
2017-06-27T00:58:41.150Z,69
2017-06-27T00:59:41.898Z,69
2017-06-27T01:00:42.641Z,69
2017-06-27T01:01:43.615Z,69
2017-06-27T01:02:44.366Z,69
2017-06-27T01:03:45.083Z,69
2017-06-27T01:04:45.804Z,69
2017-06-27T01:05:46.536Z,69
2017-06-27T01:06:47.502Z,69
2017-06-27T01:07:48.225Z,70
2017-06-27T01:08:48.951Z,70
2017-06-27T01:09:49.673Z,69
2017-06-27T01:10:50.399Z,69
2017-06-27T01:11:51.373Z,69
2017-06-27T01:12:52.093Z,70
2017-06-27T01:13:52.813Z,69
2017-06-27T01:14:53.537Z,70
2017-06-27T01:15:54.265Z,70
2017-06-27T01:16:55.237Z,70
2017-06-27T01:17:55.957Z,70
2017-06-27T01:18:56.677Z,70
2017-06-27T01:19:57.420Z,70
2017-06-27T01:20:58.144Z,70
2017-06-27T01:21:59.123Z,70
2017-06-27T01:22:59.836Z,70
2017-06-27T01:24:00.578Z,70
2017-06-27T01:25:01.303Z,70
2017-06-27T01:26:02.021Z,70
2017-06-27T01:27:02.996Z,71
2017-06-27T01:28:03.717Z,70
2017-06-27T01:29:04.437Z,71
2017-06-27T01:30:05.162Z,70
2017-06-27T01:31:05.882Z,71
2017-06-27T01:32:06.856Z,71
2017-06-27T01:33:07.576Z,70
2017-06-27T01:34:08.299Z,71
2017-06-27T01:35:09.022Z,71
2017-06-27T01:36:09.742Z,71
2017-06-27T01:37:10.712Z,71
2017-06-27T01:38:11.437Z,70
2017-06-27T01:39:12.162Z,70
2017-06-27T01:40:12.907Z,71
2017-06-27T01:41:13.630Z,71
2017-06-27T01:42:14.605Z,70
2017-06-27T01:43:15.325Z,71
2017-06-27T01:44:16.045Z,70
2017-06-27T01:45:16.771Z,71
2017-06-27T01:46:17.492Z,70
2017-06-27T01:47:18.463Z,71
2017-06-27T01:48:19.189Z,71
2017-06-27T01:49:19.911Z,71
2017-06-27T01:50:20.636Z,71
2017-06-27T01:51:21.355Z,70
2017-06-27T01:52:22.332Z,70
2017-06-27T01:53:23.056Z,71
2017-06-27T01:54:23.779Z,71
2017-06-27T01:55:24.518Z,71
2017-06-27T01:56:25.243Z,70
2017-06-27T01:57:26.241Z,71
2017-06-27T01:58:26.962Z,71
2017-06-27T01:59:27.686Z,71
2017-06-27T02:00:28.407Z,71
2017-06-27T02:01:29.126Z,71
2017-06-27T02:02:30.099Z,72
2017-06-27T02:03:30.846Z,71
2017-06-27T02:04:31.566Z,71
2017-06-27T02:05:32.292Z,72
2017-06-27T02:06:33.016Z,72
2017-06-27T02:07:33.987Z,72
2017-06-27T02:08:34.731Z,72
2017-06-27T02:09:35.455Z,72
2017-06-27T02:10:36.180Z,72
2017-06-27T02:11:36.900Z,72
2017-06-27T02:12:37.876Z,72
2017-06-27T02:13:38.594Z,72
2017-06-27T02:14:39.316Z,72
2017-06-27T02:15:40.039Z,73
2017-06-27T02:16:40.758Z,72
2017-06-27T02:17:41.731Z,72
2017-06-27T02:18:42.457Z,73
2017-06-27T02:19:43.177Z,73
2017-06-27T02:20:43.896Z,73
2017-06-27T02:21:44.625Z,73
2017-06-27T02:22:45.590Z,73
2017-06-27T02:23:46.313Z,73
2017-06-27T02:24:47.039Z,73
2017-06-27T02:25:47.767Z,73
2017-06-27T02:26:48.482Z,74
2017-06-27T02:27:49.458Z,74
2017-06-27T02:28:50.182Z,73
2017-06-27T02:29:50.900Z,73
2017-06-27T02:30:51.620Z,73
2017-06-27T02:31:52.346Z,73
2017-06-27T02:32:53.321Z,74
2017-06-27T02:33:54.039Z,74
2017-06-27T02:34:54.761Z,74
2017-06-27T02:35:55.506Z,74
2017-06-27T02:36:56.229Z,74
2017-06-27T02:37:57.203Z,74
2017-06-27T02:38:57.923Z,74
2017-06-27T02:39:58.645Z,74
2017-06-27T02:40:59.370Z,75
2017-06-27T02:42:00.094Z,74
2017-06-27T02:43:01.064Z,74
2017-06-27T02:44:01.787Z,74
2017-06-27T02:45:02.512Z,74
2017-06-27T02:46:03.254Z,74
2017-06-27T02:47:03.979Z,74
2017-06-27T02:48:04.976Z,75
2017-06-27T02:49:05.703Z,75
2017-06-27T02:50:06.424Z,75
2017-06-27T02:51:07.149Z,75
2017-06-27T02:52:07.870Z,75
2017-06-27T02:53:08.843Z,74
2017-06-27T02:54:09.570Z,75
2017-06-27T02:55:10.293Z,75
2017-06-27T02:56:11.011Z,75
2017-06-27T02:57:11.735Z,75
2017-06-27T02:58:12.710Z,75
2017-06-27T02:59:13.429Z,75
2017-06-27T03:00:14.150Z,75
2017-06-27T03:01:14.875Z,75
2017-06-27T03:02:15.599Z,75
2017-06-27T03:03:16.575Z,75
2017-06-27T03:04:17.297Z,75
2017-06-27T03:05:18.022Z,75
2017-06-27T03:06:18.745Z,76
2017-06-27T03:07:19.470Z,75
2017-06-27T03:08:20.446Z,75
2017-06-27T03:09:21.166Z,75
2017-06-27T03:10:21.890Z,75
2017-06-27T03:11:22.617Z,76
2017-06-27T03:12:23.343Z,76
2017-06-27T03:13:24.320Z,76
2017-06-27T03:14:25.047Z,76
2017-06-27T03:15:25.771Z,76
2017-06-27T03:16:26.498Z,76
2017-06-27T03:17:27.224Z,76
2017-06-27T03:18:28.224Z,76
2017-06-27T03:19:28.950Z,75
2017-06-27T03:20:29.698Z,76
2017-06-27T03:21:30.428Z,76
2017-06-27T03:22:31.152Z,76
2017-06-27T03:23:32.155Z,76
2017-06-27T03:24:32.878Z,76
2017-06-27T03:25:33.602Z,76
2017-06-27T03:26:34.328Z,76
2017-06-27T03:27:35.054Z,76
2017-06-27T03:28:36.029Z,76
2017-06-27T03:29:36.759Z,76
2017-06-27T03:30:37.489Z,75
2017-06-27T03:31:38.214Z,75
2017-06-27T03:32:38.936Z,76
2017-06-27T03:33:39.913Z,76
2017-06-27T03:34:40.638Z,76
2017-06-27T03:35:41.367Z,76
2017-06-27T03:36:42.089Z,75
2017-06-27T03:37:42.817Z,75
2017-06-27T03:38:43.793Z,75
2017-06-27T03:39:44.517Z,76
2017-06-27T03:40:45.246Z,75
2017-06-27T03:41:45.972Z,75
2017-06-27T03:42:46.698Z,76
2017-06-27T03:43:47.671Z,75
2017-06-27T03:44:48.398Z,75
2017-06-27T03:45:49.125Z,75
2017-06-27T03:46:49.847Z,75
2017-06-27T03:47:50.576Z,76
2017-06-27T03:48:51.549Z,76
2017-06-27T03:49:52.279Z,76
2017-06-27T03:50:53.003Z,75
2017-06-27T03:51:53.730Z,75
2017-06-27T03:52:54.458Z,75
2017-06-27T03:53:55.435Z,75
2017-06-27T03:54:56.159Z,75
2017-06-27T03:55:56.886Z,75
2017-06-27T03:56:57.616Z,75
2017-06-27T03:57:58.340Z,75
2017-06-27T03:58:59.317Z,75
2017-06-27T04:00:00.043Z,75
2017-06-27T04:01:00.770Z,74
2017-06-27T04:02:01.501Z,74
2017-06-27T04:03:02.231Z,74
2017-06-27T04:04:03.204Z,75
2017-06-27T04:05:03.930Z,75
2017-06-27T04:06:04.657Z,75
2017-06-27T04:07:05.386Z,74
2017-06-27T04:08:06.112Z,75
2017-06-27T04:09:07.089Z,74
2017-06-27T04:10:07.819Z,75
2017-06-27T04:11:08.549Z,74
2017-06-27T04:12:09.277Z,75
2017-06-27T04:13:10.002Z,75
2017-06-27T04:14:10.979Z,75
2017-06-27T04:15:11.705Z,74
2017-06-27T04:16:12.430Z,74
2017-06-27T04:17:13.161Z,75
2017-06-27T04:18:13.884Z,74
2017-06-27T04:19:14.865Z,74
2017-06-27T04:20:15.593Z,74
2017-06-27T04:21:16.321Z,74
2017-06-27T04:22:17.069Z,74
2017-06-27T04:23:17.799Z,74
2017-06-27T04:24:18.772Z,74
2017-06-27T04:25:19.502Z,74
2017-06-27T04:26:20.227Z,74
2017-06-27T04:27:20.955Z,74
2017-06-27T04:28:21.681Z,74
2017-06-27T04:29:22.657Z,74
2017-06-27T04:30:23.386Z,74
2017-06-27T04:31:24.111Z,74
2017-06-27T04:32:24.839Z,74
2017-06-27T04:33:25.567Z,74
2017-06-27T04:34:26.540Z,74
2017-06-27T04:35:27.270Z,74
2017-06-27T04:36:27.997Z,74
2017-06-27T04:37:28.726Z,74
2017-06-27T04:38:29.451Z,73
2017-06-27T04:39:30.431Z,73
2017-06-27T04:40:31.155Z,73
2017-06-27T04:41:31.885Z,73
2017-06-27T04:42:32.609Z,73
2017-06-27T04:43:33.337Z,73
2017-06-27T04:44:34.339Z,73
2017-06-27T04:45:35.069Z,73
2017-06-27T04:46:35.795Z,73
2017-06-27T04:47:36.526Z,73
2017-06-27T04:48:37.277Z,73
2017-06-27T04:49:38.254Z,73
2017-06-27T04:50:38.984Z,73
2017-06-27T04:51:39.714Z,73
2017-06-27T04:52:40.444Z,73
2017-06-27T04:53:41.173Z,73
2017-06-27T04:54:42.147Z,73
2017-06-27T04:55:42.878Z,73
2017-06-27T04:56:43.605Z,73
2017-06-27T04:57:44.335Z,72
2017-06-27T04:58:45.063Z,72
2017-06-27T04:59:46.040Z,73
2017-06-27T05:00:46.770Z,73
2017-06-27T05:01:47.503Z,72
2017-06-27T05:02:48.226Z,73
2017-06-27T05:03:48.958Z,73
2017-06-27T05:04:49.938Z,72
2017-06-27T05:05:50.671Z,72
2017-06-27T05:06:51.394Z,72
2017-06-27T05:07:52.124Z,73
2017-06-27T05:08:52.852Z,73
2017-06-27T05:09:53.831Z,72
2017-06-27T05:10:54.561Z,72
2017-06-27T05:11:55.286Z,72
2017-06-27T05:12:56.016Z,72
2017-06-27T05:13:56.748Z,72
2017-06-27T05:14:57.726Z,72
2017-06-27T05:15:58.455Z,72
2017-06-27T05:16:59.183Z,72
2017-06-27T05:17:59.915Z,72
2017-06-27T05:19:00.641Z,72
2017-06-27T05:20:01.652Z,72
2017-06-27T05:21:02.352Z,72
2017-06-27T05:22:03.077Z,72
2017-06-27T05:23:03.805Z,71
2017-06-27T05:24:04.531Z,71
2017-06-27T05:25:05.510Z,71
2017-06-27T05:26:06.239Z,72
2017-06-27T05:27:06.969Z,71
2017-06-27T05:28:07.698Z,71
2017-06-27T05:29:08.427Z,70
2017-06-27T05:30:09.407Z,71
2017-06-27T05:31:10.134Z,70
2017-06-27T05:32:10.862Z,70
2017-06-27T05:33:11.625Z,70
2017-06-27T05:34:12.353Z,69
2017-06-27T05:35:13.332Z,69
2017-06-27T05:36:14.064Z,69
2017-06-27T05:37:14.794Z,69
2017-06-27T05:38:15.523Z,68
2017-06-27T05:39:16.275Z,68
2017-06-27T05:40:17.258Z,68
2017-06-27T05:41:17.981Z,68
2017-06-27T05:42:18.755Z,68
2017-06-27T05:43:19.510Z,68
2017-06-27T05:44:20.241Z,68
2017-06-27T05:45:21.217Z,68
2017-06-27T05:46:21.946Z,67
2017-06-27T05:47:22.674Z,67
2017-06-27T05:48:23.406Z,67
2017-06-27T05:49:24.132Z,67
2017-06-27T05:50:25.136Z,66
2017-06-27T05:51:25.863Z,66
2017-06-27T05:52:26.594Z,66
2017-06-27T05:53:27.322Z,65
2017-06-27T05:54:28.076Z,65
2017-06-27T05:55:29.054Z,65
2017-06-27T05:56:29.784Z,64
2017-06-27T05:57:30.534Z,65
2017-06-27T05:58:31.266Z,65
2017-06-27T05:59:31.997Z,65
2017-06-27T06:00:32.978Z,64
2017-06-27T06:01:33.726Z,64
2017-06-27T06:02:34.434Z,65
2017-06-27T06:03:35.163Z,65
2017-06-27T06:04:35.891Z,64
2017-06-27T06:05:36.873Z,65
2017-06-27T06:06:37.606Z,64
2017-06-27T06:07:38.336Z,64
2017-06-27T06:08:39.067Z,65
2017-06-27T06:09:39.797Z,65
2017-06-27T06:10:40.780Z,65
2017-06-27T06:11:41.512Z,64
2017-06-27T06:12:42.240Z,65
2017-06-27T06:13:42.971Z,65
2017-06-27T06:14:43.698Z,65
2017-06-27T06:15:44.681Z,64
2017-06-27T06:16:45.431Z,64
2017-06-27T06:17:46.164Z,65
2017-06-27T06:18:46.891Z,65
2017-06-27T06:19:47.619Z,65
2017-06-27T06:20:48.601Z,65
2017-06-27T06:21:49.331Z,64
2017-06-27T06:22:50.065Z,65
2017-06-27T06:23:50.795Z,65
2017-06-27T06:24:51.522Z,65
2017-06-27T06:25:52.502Z,65
2017-06-27T06:26:53.232Z,65
2017-06-27T06:27:53.959Z,65
2017-06-27T06:28:54.688Z,64
2017-06-27T06:29:55.419Z,64
2017-06-27T06:30:56.401Z,64
2017-06-27T06:31:57.130Z,64
2017-06-27T06:32:57.861Z,64
2017-06-27T06:33:58.589Z,63
2017-06-27T06:34:59.316Z,64
2017-06-27T06:36:00.323Z,63
2017-06-27T06:37:01.055Z,63
2017-06-27T06:38:01.784Z,63
2017-06-27T06:39:02.513Z,63
2017-06-27T06:40:03.244Z,63
2017-06-27T06:41:04.226Z,63
2017-06-27T06:42:04.960Z,63
2017-06-27T06:43:05.686Z,62
2017-06-27T06:44:06.419Z,62
2017-06-27T06:45:07.150Z,60
2017-06-27T06:46:08.131Z,60
2017-06-27T06:47:08.864Z,60
2017-06-27T06:48:09.593Z,60
2017-06-27T06:49:10.325Z,60
2017-06-27T06:50:11.053Z,59
2017-06-27T06:51:12.057Z,60
2017-06-27T06:52:12.789Z,59
2017-06-27T06:53:13.525Z,59
2017-06-27T06:54:14.254Z,59
2017-06-27T06:55:15.011Z,59
2017-06-27T06:56:15.989Z,59
2017-06-27T06:57:16.724Z,60
2017-06-27T06:58:17.452Z,60
2017-06-27T06:59:18.181Z,60
2017-06-27T07:00:18.919Z,59
2017-06-27T07:01:19.895Z,60
2017-06-27T07:02:20.629Z,59
2017-06-27T07:03:21.361Z,59
2017-06-27T07:04:22.091Z,59
2017-06-27T07:05:22.822Z,59
2017-06-27T07:06:23.804Z,59
2017-06-27T07:07:24.537Z,59
2017-06-27T07:08:25.267Z,59
2017-06-27T07:09:26.002Z,59
2017-06-27T07:10:26.735Z,59
2017-06-27T07:11:27.716Z,59
2017-06-27T07:12:28.445Z,59
2017-06-27T07:13:29.175Z,58
2017-06-27T07:14:29.908Z,58
2017-06-27T07:15:30.642Z,58
2017-06-27T07:16:31.628Z,57
2017-06-27T07:17:32.358Z,57
2017-06-27T07:18:33.086Z,56
2017-06-27T07:19:33.824Z,56
2017-06-27T07:20:34.555Z,57
2017-06-27T07:21:35.540Z,57
2017-06-27T07:22:36.269Z,57
2017-06-27T07:23:37.003Z,57
2017-06-27T07:24:37.735Z,57
2017-06-27T07:25:38.470Z,57
2017-06-27T07:26:39.451Z,57
2017-06-27T07:27:40.187Z,57
2017-06-27T07:28:40.918Z,57
2017-06-27T07:29:41.651Z,57
2017-06-27T07:30:42.381Z,57
2017-06-27T07:31:43.367Z,57
2017-06-27T07:32:44.095Z,57
2017-06-27T07:33:44.833Z,57
2017-06-27T07:34:45.566Z,57
2017-06-27T07:35:46.301Z,56
2017-06-27T07:36:47.282Z,57
2017-06-27T07:37:48.013Z,56
2017-06-27T07:38:48.749Z,55
2017-06-27T07:39:49.483Z,55
2017-06-27T07:40:50.219Z,55
2017-06-27T07:41:51.224Z,55
2017-06-27T07:42:51.958Z,54
2017-06-27T07:43:52.695Z,54
2017-06-27T07:44:53.431Z,54
2017-06-27T07:45:54.189Z,54
2017-06-27T07:46:55.175Z,55
2017-06-27T07:47:55.903Z,54
2017-06-27T07:48:56.638Z,54
2017-06-27T07:49:57.371Z,55
2017-06-27T07:50:58.107Z,54
2017-06-27T07:51:59.092Z,57
2017-06-27T07:52:59.823Z,57
2017-06-27T07:54:00.558Z,57
2017-06-27T07:55:01.291Z,56
2017-06-27T07:56:02.028Z,57
2017-06-27T07:57:03.011Z,57
2017-06-27T07:58:03.747Z,57
2017-06-27T07:59:04.477Z,57
2017-06-27T08:00:05.212Z,56
2017-06-27T08:01:05.947Z,56
2017-06-27T08:02:06.930Z,57
2017-06-27T08:03:07.662Z,57
2017-06-27T08:04:08.395Z,57
2017-06-27T08:05:09.126Z,57
2017-06-27T08:06:09.861Z,56
2017-06-27T08:07:10.843Z,56
2017-06-27T08:08:11.577Z,55
2017-06-27T08:09:12.314Z,55
2017-06-27T08:10:13.052Z,55
2017-06-27T08:11:13.784Z,55
2017-06-27T08:12:14.774Z,55
2017-06-27T08:13:15.509Z,54
2017-06-27T08:14:16.241Z,55
2017-06-27T08:15:16.976Z,55
2017-06-27T08:16:17.708Z,54
2017-06-27T08:17:18.698Z,54
2017-06-27T08:18:19.427Z,53
2017-06-27T08:19:20.164Z,53
2017-06-27T08:20:20.896Z,54
2017-06-27T08:21:21.631Z,54
2017-06-27T08:22:22.638Z,53
2017-06-27T08:23:23.369Z,53
2017-06-27T08:24:24.103Z,53
2017-06-27T08:25:24.839Z,54
2017-06-27T08:26:25.570Z,54
2017-06-27T08:27:26.556Z,55
2017-06-27T08:28:27.292Z,55
2017-06-27T08:29:28.023Z,54
2017-06-27T08:30:28.758Z,54
2017-06-27T08:31:29.496Z,54
2017-06-27T08:32:30.487Z,54
2017-06-27T08:33:31.220Z,54
2017-06-27T08:34:31.952Z,54
2017-06-27T08:35:32.690Z,53
2017-06-27T08:36:33.427Z,53
2017-06-27T08:37:34.410Z,53
2017-06-27T08:38:35.145Z,53
2017-06-27T08:39:35.883Z,53
2017-06-27T08:40:36.619Z,53
2017-06-27T08:41:37.354Z,53
2017-06-27T08:42:38.336Z,52
2017-06-27T08:43:39.075Z,52
2017-06-27T08:44:39.812Z,52
2017-06-27T08:45:40.551Z,53
2017-06-27T08:46:41.293Z,53
2017-06-27T08:47:42.280Z,53
2017-06-27T08:48:43.019Z,54
2017-06-27T08:49:43.758Z,53
2017-06-27T08:50:44.492Z,53
2017-06-27T08:51:45.232Z,52
2017-06-27T08:52:45.974Z,52
2017-06-27T08:53:46.713Z,51
2017-06-27T08:54:47.448Z,52
2017-06-27T08:55:48.187Z,52
2017-06-27T08:56:49.179Z,52
2017-06-27T08:57:49.916Z,52
2017-06-27T08:58:50.667Z,50
2017-06-27T08:59:51.401Z,50
2017-06-27T09:00:52.142Z,50
2017-06-27T09:01:53.154Z,50
2017-06-27T09:02:53.897Z,51
2017-06-27T09:03:54.633Z,50
2017-06-27T09:04:55.378Z,50
2017-06-27T09:05:56.116Z,50
2017-06-27T09:06:57.107Z,50
2017-06-27T09:07:57.845Z,50
2017-06-27T09:08:58.606Z,50
2017-06-27T09:09:59.348Z,50
2017-06-27T09:11:00.086Z,51
2017-06-27T09:12:01.078Z,52
2017-06-27T09:13:01.818Z,52
2017-06-27T09:14:02.555Z,53
2017-06-27T09:15:03.295Z,54
2017-06-27T09:16:04.033Z,54
2017-06-27T09:17:05.022Z,53
2017-06-27T09:18:05.759Z,53
2017-06-27T09:19:06.498Z,53
2017-06-27T09:20:07.241Z,53
2017-06-27T09:21:07.979Z,54
2017-06-27T09:22:09.018Z,54
2017-06-27T09:23:09.755Z,54
2017-06-27T09:24:10.495Z,54
2017-06-27T09:25:11.235Z,54
2017-06-27T09:26:11.972Z,54
2017-06-27T09:27:12.966Z,53
2017-06-27T09:28:13.699Z,53
2017-06-27T09:29:14.435Z,54
2017-06-27T09:30:15.171Z,53
2017-06-27T09:31:15.908Z,53
2017-06-27T09:32:16.896Z,54
2017-06-27T09:33:17.635Z,53
2017-06-27T09:34:18.373Z,53
2017-06-27T09:35:19.105Z,53
2017-06-27T09:36:19.842Z,54
2017-06-27T09:37:20.828Z,54
2017-06-27T09:38:21.567Z,54
2017-06-27T09:39:22.325Z,53
2017-06-27T09:40:23.058Z,54
2017-06-27T09:41:23.796Z,54
2017-06-27T09:42:24.833Z,54
2017-06-27T09:43:25.571Z,53
2017-06-27T09:44:26.311Z,54
2017-06-27T09:45:27.045Z,54
2017-06-27T09:46:27.784Z,54
2017-06-27T09:47:28.772Z,54
2017-06-27T09:48:29.508Z,54
2017-06-27T09:49:30.243Z,53
2017-06-27T09:50:30.976Z,53
2017-06-27T09:51:31.718Z,53
2017-06-27T09:52:32.707Z,53
2017-06-27T09:53:33.438Z,54
2017-06-27T09:54:34.203Z,54
2017-06-27T09:55:34.935Z,55
2017-06-27T09:56:35.665Z,54
2017-06-27T09:57:36.655Z,54
2017-06-27T09:58:37.393Z,54
2017-06-27T09:59:38.129Z,55
2017-06-27T10:00:38.861Z,54
2017-06-27T10:01:39.600Z,55
2017-06-27T10:02:40.607Z,54
2017-06-27T10:03:41.342Z,55
2017-06-27T10:04:42.080Z,55
2017-06-27T10:05:42.817Z,55
2017-06-27T10:06:43.553Z,55
2017-06-27T10:07:44.539Z,54
2017-06-27T10:08:45.277Z,54
2017-06-27T10:09:46.016Z,54
2017-06-27T10:10:46.750Z,54
2017-06-27T10:11:47.484Z,54
2017-06-27T10:12:48.467Z,54
2017-06-27T10:13:49.206Z,54
2017-06-27T10:14:49.942Z,54
2017-06-27T10:15:50.674Z,54
2017-06-27T10:16:51.413Z,54
2017-06-27T10:17:52.401Z,54
2017-06-27T10:18:53.138Z,54
2017-06-27T10:19:53.870Z,54
2017-06-27T10:20:54.608Z,52
2017-06-27T10:21:55.350Z,52
2017-06-27T10:22:56.330Z,52
2017-06-27T10:23:57.071Z,52
2017-06-27T10:24:57.834Z,51
2017-06-27T10:25:58.572Z,52
2017-06-27T10:26:59.309Z,52
2017-06-27T10:28:00.294Z,52
2017-06-27T10:29:01.032Z,52
2017-06-27T10:30:01.773Z,52
2017-06-27T10:31:02.518Z,52
2017-06-27T10:32:03.252Z,52
2017-06-27T10:33:04.262Z,52
2017-06-27T10:34:04.998Z,52
2017-06-27T10:35:05.741Z,52
2017-06-27T10:36:06.477Z,52
2017-06-27T10:37:07.217Z,51
2017-06-27T10:38:08.231Z,51
2017-06-27T10:39:08.992Z,51
2017-06-27T10:40:09.736Z,51
2017-06-27T10:41:10.477Z,51
2017-06-27T10:42:11.211Z,51
2017-06-27T10:43:12.206Z,50
2017-06-27T10:44:12.948Z,50
2017-06-27T10:45:13.687Z,50
2017-06-27T10:46:14.428Z,50
2017-06-27T10:47:15.166Z,51
2017-06-27T10:48:16.158Z,51
2017-06-27T10:49:16.901Z,51
2017-06-27T10:50:17.643Z,51
2017-06-27T10:51:18.386Z,51
2017-06-27T10:52:19.125Z,50
2017-06-27T10:53:20.118Z,51
2017-06-27T10:54:20.855Z,50
2017-06-27T10:55:21.594Z,51
2017-06-27T10:56:22.330Z,51
2017-06-27T10:57:23.072Z,52
2017-06-27T10:58:24.083Z,52
2017-06-27T10:59:24.824Z,52
2017-06-27T11:00:25.563Z,53
2017-06-27T11:01:26.302Z,53
2017-06-27T11:02:27.038Z,53
2017-06-27T11:03:28.032Z,53
2017-06-27T11:04:28.772Z,52
2017-06-27T11:05:29.510Z,52
2017-06-27T11:06:30.258Z,52
2017-06-27T11:07:30.990Z,52
2017-06-27T11:08:31.982Z,52
2017-06-27T11:09:32.719Z,52
2017-06-27T11:10:33.458Z,51
2017-06-27T11:11:34.201Z,52
2017-06-27T11:12:34.939Z,51
2017-06-27T11:13:35.931Z,52
2017-06-27T11:14:36.671Z,52
2017-06-27T11:15:37.410Z,53
2017-06-27T11:16:38.149Z,53
2017-06-27T11:17:38.887Z,53
2017-06-27T11:18:39.880Z,53
2017-06-27T11:19:40.621Z,53
2017-06-27T11:20:41.357Z,53
2017-06-27T11:21:42.098Z,53
2017-06-27T11:22:42.837Z,53
2017-06-27T11:23:43.829Z,52
2017-06-27T11:24:44.567Z,52
2017-06-27T11:25:45.309Z,52
2017-06-27T11:26:46.047Z,52
2017-06-27T11:27:46.782Z,53
2017-06-27T11:28:47.769Z,53
2017-06-27T11:29:48.504Z,52
2017-06-27T11:30:49.246Z,52
2017-06-27T11:31:49.985Z,52
2017-06-27T11:32:50.724Z,51
2017-06-27T11:33:51.712Z,51
2017-06-27T11:34:52.452Z,51
2017-06-27T11:35:53.218Z,51
2017-06-27T11:36:53.959Z,50
2017-06-27T11:37:54.695Z,51
2017-06-27T11:38:55.690Z,51
2017-06-27T11:39:56.432Z,51
2017-06-27T11:40:57.170Z,50
2017-06-27T11:41:57.906Z,50
2017-06-27T11:42:58.646Z,50
2017-06-27T11:43:59.638Z,50
2017-06-27T11:45:00.380Z,50
2017-06-27T11:46:01.118Z,51
2017-06-27T11:47:01.863Z,51
2017-06-27T11:48:02.603Z,51
2017-06-27T11:49:03.614Z,51
2017-06-27T11:50:04.353Z,50
2017-06-27T11:51:05.091Z,50
2017-06-27T11:52:05.835Z,51
2017-06-27T11:53:06.578Z,51
2017-06-27T11:54:07.570Z,51
2017-06-27T11:55:08.337Z,51
2017-06-27T11:56:09.080Z,51
2017-06-27T11:57:09.819Z,51
2017-06-27T11:58:10.584Z,50
2017-06-27T11:59:11.600Z,51
2017-06-27T12:00:12.357Z,51
2017-06-27T12:01:13.098Z,51
2017-06-27T12:02:13.838Z,51
2017-06-27T12:03:14.577Z,51
2017-06-27T12:04:15.567Z,51
2017-06-27T12:05:16.309Z,51
2017-06-27T12:06:17.047Z,50
2017-06-27T12:07:17.790Z,50
2017-06-27T12:08:18.529Z,50
2017-06-27T12:09:19.542Z,50
2017-06-27T12:10:20.287Z,51
2017-06-27T12:11:21.027Z,50
2017-06-27T12:12:21.768Z,51
2017-06-27T12:13:22.564Z,51
2017-06-27T12:14:23.554Z,51
2017-06-27T12:15:24.295Z,51
2017-06-27T12:16:25.035Z,51
2017-06-27T12:17:25.801Z,51
2017-06-27T12:18:26.543Z,51
2017-06-27T12:19:27.537Z,52
2017-06-27T12:20:28.278Z,51
2017-06-27T12:21:29.021Z,51
2017-06-27T12:22:29.760Z,52
2017-06-27T12:23:30.500Z,51
2017-06-27T12:24:31.491Z,52
2017-06-27T12:25:32.230Z,52
2017-06-27T12:26:32.967Z,52
2017-06-27T12:27:33.703Z,52
2017-06-27T12:28:34.468Z,52
2017-06-27T12:29:35.462Z,52
2017-06-27T12:30:36.196Z,52
2017-06-27T12:31:36.940Z,52
2017-06-27T12:32:37.678Z,52
2017-06-27T12:33:38.414Z,53
2017-06-27T12:34:39.406Z,52
2017-06-27T12:35:40.145Z,53
2017-06-27T12:36:40.888Z,53
2017-06-27T12:37:41.628Z,53
2017-06-27T12:38:42.362Z,53
2017-06-27T12:39:43.350Z,54
2017-06-27T12:40:44.090Z,53
2017-06-27T12:41:44.831Z,53
2017-06-27T12:42:45.588Z,54
2017-06-27T12:43:46.330Z,54
2017-06-27T12:44:47.349Z,54
2017-06-27T12:45:48.085Z,54
2017-06-27T12:46:48.818Z,53
2017-06-27T12:47:49.561Z,54
2017-06-27T12:48:50.295Z,54
2017-06-27T12:49:51.309Z,54
2017-06-27T12:50:52.049Z,54
2017-06-27T12:51:52.788Z,54
2017-06-27T12:52:53.527Z,54
2017-06-27T12:53:54.264Z,55
2017-06-27T12:54:55.274Z,55
2017-06-27T12:55:56.011Z,55
2017-06-27T12:56:56.748Z,55
2017-06-27T12:57:57.487Z,55
2017-06-27T12:58:58.249Z,54
2017-06-27T12:59:59.264Z,54
2017-06-27T13:01:00.000Z,53
2017-06-27T13:02:00.744Z,54
2017-06-27T13:03:01.478Z,54
2017-06-27T13:04:02.215Z,54
2017-06-27T13:05:03.202Z,55
2017-06-27T13:06:03.939Z,55
2017-06-27T13:07:04.676Z,57
2017-06-27T13:08:05.414Z,58
2017-06-27T13:09:06.155Z,59
2017-06-27T13:10:07.140Z,58
2017-06-27T13:11:07.877Z,57
2017-06-27T13:12:08.617Z,57
2017-06-27T13:13:09.359Z,59
2017-06-27T13:14:10.097Z,59
2017-06-27T13:15:11.081Z,59
2017-06-27T13:16:11.817Z,60
2017-06-27T13:17:12.554Z,60
2017-06-27T13:18:13.289Z,61
2017-06-27T13:19:14.049Z,61
2017-06-27T13:20:15.033Z,60
2017-06-27T13:21:15.790Z,60
2017-06-27T13:22:16.533Z,60
2017-06-27T13:23:17.268Z,59
2017-06-27T13:24:18.007Z,59
2017-06-27T13:25:18.994Z,60
2017-06-27T13:26:19.728Z,59
2017-06-27T13:27:20.471Z,59
2017-06-27T13:28:21.204Z,60
2017-06-27T13:29:21.944Z,59
2017-06-27T13:30:22.934Z,60
2017-06-27T13:31:23.677Z,59
2017-06-27T13:32:24.413Z,60
2017-06-27T13:33:25.150Z,60
2017-06-27T13:34:25.883Z,60
2017-06-27T13:35:26.874Z,60
2017-06-27T13:36:27.638Z,61
2017-06-27T13:37:28.371Z,61
2017-06-27T13:38:29.106Z,61
2017-06-27T13:39:29.846Z,61
2017-06-27T13:40:30.833Z,60
2017-06-27T13:41:31.574Z,61
2017-06-27T13:42:32.309Z,61
2017-06-27T13:43:33.071Z,62
2017-06-27T13:44:33.809Z,63
2017-06-27T13:45:34.801Z,60
2017-06-27T13:46:35.538Z,60
2017-06-27T13:47:36.281Z,60
2017-06-27T13:48:37.017Z,60
2017-06-27T13:49:37.761Z,60
2017-06-27T13:50:38.750Z,60
2017-06-27T13:51:39.483Z,60
2017-06-27T13:52:40.223Z,60
2017-06-27T13:53:40.965Z,59
2017-06-27T13:54:41.700Z,60
2017-06-27T13:55:42.688Z,59
2017-06-27T13:56:43.444Z,59
2017-06-27T13:57:44.181Z,60
2017-06-27T13:58:44.920Z,59
2017-06-27T13:59:45.656Z,60
2017-06-27T14:00:46.646Z,60
2017-06-27T14:01:47.382Z,60
2017-06-27T14:02:48.118Z,60
2017-06-27T14:03:48.857Z,59
2017-06-27T14:04:49.595Z,59
2017-06-27T14:05:50.587Z,59
2017-06-27T14:06:51.314Z,59
2017-06-27T14:07:52.057Z,60
2017-06-27T14:08:52.795Z,60
2017-06-27T14:09:53.528Z,59
2017-06-27T14:10:54.545Z,59
2017-06-27T14:11:55.276Z,59
2017-06-27T14:12:56.015Z,59
2017-06-27T14:13:56.755Z,59
2017-06-27T14:14:57.490Z,59
2017-06-27T14:15:58.484Z,59
2017-06-27T14:16:59.221Z,59
2017-06-27T14:17:59.957Z,60
2017-06-27T14:19:00.694Z,60
2017-06-27T14:20:01.434Z,60
2017-06-27T14:21:02.420Z,60
2017-06-27T14:22:03.160Z,60
2017-06-27T14:23:03.897Z,60
2017-06-27T14:24:04.634Z,59
2017-06-27T14:25:05.370Z,59
2017-06-27T14:26:06.357Z,60
2017-06-27T14:27:07.100Z,59